Time;durP1;ratioP1;P1;durP2;ratioP2;P2;SDS_P1;SDS_P2;PMS_P1;PMS_P2;Temp;Humidity;BMP_temperature;BMP_pressure;BME280_temperature;BME280_humidity;BME280_pressure;Samples;Min_cycle;Max_cycle;Signal;HPM_P1;HPM_P2
2022/06/04 00:00:56;;;;;;;5.65;2.00;;;;;;;13.81;56.56;101863.69;10426065;28;20045;-76
2022/06/04 00:05:58;;;;;;;5.63;1.98;;;;;;;13.69;57.05;101876.25;10412434;28;20045;-76
2022/06/04 00:16:22;;;;;;;4.10;2.00;;;;;;;13.70;57.29;101897.03;10407451;28;20492;-75
2022/06/04 00:21:25;;;;;;;4.53;2.33;;;;;;;13.68;57.79;101903.00;10418845;28;20563;-75
2022/06/04 00:26:26;;;;;;;3.50;2.42;;;;;;;13.64;58.48;101897.75;10412165;28;20053;-76
2022/06/04 00:31:28;;;;;;;5.93;3.15;;;;;;;13.60;58.62;101906.25;10410922;28;20107;-75
2022/06/04 00:36:33;;;;;;;4.10;2.25;;;;;;;13.49;59.37;101897.28;10412128;28;20087;-75
2022/06/04 00:42:12;;;;;;;7.50;2.42;;;;;;;13.43;59.77;101886.75;10412128;28;20045;-76
2022/06/04 00:47:23;;;;;;;5.38;2.40;;;;;;;13.28;60.81;101888.03;10338975;28;20051;-76
2022/06/04 00:52:25;;;;;;;5.53;2.60;;;;;;;13.08;61.27;101894.25;10404511;28;20045;-75
2022/06/04 00:57:45;;;;;;;5.03;2.38;;;;;;;12.94;62.30;101886.94;10403930;28;20525;-75
2022/06/04 01:02:53;;;;;;;4.85;2.55;;;;;;;12.85;62.54;101877.19;10384932;28;20413;-75
2022/06/04 01:08:34;;;;;;;6.07;2.60;;;;;;;12.83;62.95;101877.97;10399371;28;20496;-76
2022/06/04 01:13:59;;;;;;;5.65;2.83;;;;;;;12.73;63.92;101892.31;10405503;28;20041;-75
2022/06/04 01:19:42;;;;;;;5.03;3.17;;;;;;;12.58;64.63;101895.25;10400562;28;20064;-76
2022/06/04 01:24:57;;;;;;;4.63;2.95;;;;;;;12.54;64.86;101890.84;10399314;28;20512;-76
2022/06/04 01:30:09;;;;;;;6.18;3.50;;;;;;;12.46;65.31;101890.56;10389322;28;20064;-75
2022/06/04 01:35:14;;;;;;;5.03;3.28;;;;;;;12.41;65.77;101909.31;10406610;28;20045;-75
2022/06/04 01:45:44;;;;;;;7.28;3.92;;;;;;;12.33;66.74;101935.75;10410002;28;20083;-77
2022/06/04 01:50:51;;;;;;;5.40;3.58;;;;;;;12.30;66.86;101947.69;10389282;28;20497;-76
2022/06/04 01:55:56;;;;;;;7.47;4.28;;;;;;;12.19;67.54;101939.56;10409737;28;20075;-76
2022/06/04 02:01:06;;;;;;;8.77;4.30;;;;;;;12.12;68.25;101932.41;10409074;28;20500;-75
2022/06/04 02:06:11;;;;;;;;;;;;;;;12.03;68.40;101938.13;10406461;28;20075;-77
2022/06/04 02:11:17;;;;;;;6.15;3.70;;;;;;;12.07;68.46;101947.75;10408372;28;19929;-75
2022/06/04 02:16:33;;;;;;;7.03;3.92;;;;;;;11.90;69.09;101947.09;10409391;28;20107;-75
2022/06/04 02:21:36;;;;;;;9.68;4.70;;;;;;;12.01;69.19;101944.94;10418632;28;20052;-75
2022/06/04 02:26:41;;;;;;;8.25;4.60;;;;;;;11.84;70.24;101936.56;10407962;28;20037;-75
2022/06/04 02:32:08;;;;;;;9.20;4.82;;;;;;;11.82;70.40;101948.50;10393463;28;20516;-75
2022/06/04 02:37:26;;;;;;;10.25;4.97;;;;;;;11.69;71.20;101936.88;10436502;28;20042;-76
2022/06/04 02:42:33;;;;;;;10.70;4.78;;;;;;;11.79;71.25;101928.63;10413289;28;20042;-76
2022/06/04 02:47:38;;;;;;;9.38;4.63;;;;;;;11.62;71.75;101942.59;10413602;28;20526;-75
2022/06/04 02:52:42;;;;;;;7.68;4.90;;;;;;;11.64;72.16;101934.09;10403434;28;20053;-75
2022/06/04 02:57:47;;;;;;;8.15;4.95;;;;;;;11.50;72.46;101924.97;10416714;28;20096;-76
2022/06/04 03:02:49;;;;;;;8.68;4.82;;;;;;;11.47;73.42;101899.88;10416294;28;20053;-76
2022/06/04 03:07:54;;;;;;;11.32;5.05;;;;;;;11.43;73.54;101901.47;10416317;28;20038;-75
2022/06/04 03:12:56;;;;;;;13.02;5.40;;;;;;;11.34;73.74;101898.56;10414074;28;20033;-76
2022/06/04 03:17:58;;;;;;;9.82;5.28;;;;;;;11.34;73.80;101887.34;10415637;28;20044;-76
2022/06/04 03:22:59;;;;;;;9.65;5.22;;;;;;;11.34;74.39;101888.25;10409198;28;20112;-76
2022/06/04 03:28:01;;;;;;;8.25;5.00;;;;;;;11.40;74.02;101893.63;10415215;28;20053;-75
2022/06/04 03:33:05;;;;;;;12.13;5.68;;;;;;;11.47;73.96;101891.28;10414344;28;20059;-75
2022/06/04 03:38:06;;;;;;;9.23;5.35;;;;;;;11.41;74.18;101885.06;10414025;28;20049;-75
2022/06/04 03:43:08;;;;;;;11.82;5.38;;;;;;;11.31;75.02;101884.66;10415065;28;20048;-75
2022/06/04 03:48:10;;;;;;;11.88;5.57;;;;;;;11.38;74.67;101889.25;10414575;28;20050;-75
2022/06/04 03:53:11;;;;;;;12.07;5.65;;;;;;;11.47;74.12;101902.47;10414328;28;20451;-75
2022/06/04 03:58:13;;;;;;;11.07;5.53;;;;;;;11.49;75.20;101892.22;10413334;28;20045;-75
2022/06/04 04:03:17;;;;;;;13.52;5.30;;;;;;;11.59;74.70;101899.47;10414322;28;20054;-75
2022/06/04 04:08:24;;;;;;;10.45;5.55;;;;;;;11.72;74.21;101901.72;10412270;28;20045;-76
2022/06/04 04:13:26;;;;;;;11.60;6.50;;;;;;;11.88;73.96;101912.59;10413727;28;20041;-76
2022/06/04 04:18:28;;;;;;;11.35;5.82;;;;;;;11.95;73.79;101924.91;10413036;28;20053;-76
2022/06/04 04:23:29;;;;;;;10.00;6.00;;;;;;;12.14;73.29;101925.63;10413259;28;20053;-76
2022/06/04 04:28:31;;;;;;;11.85;6.00;;;;;;;12.11;73.66;101917.75;10412969;28;20044;-75
2022/06/04 04:33:34;;;;;;;12.35;5.97;;;;;;;12.01;73.96;101925.19;10411420;28;20095;-75
2022/06/04 04:38:36;;;;;;;12.43;6.30;;;;;;;12.21;74.11;101925.00;10412987;28;20084;-75
2022/06/04 04:43:39;;;;;;;11.23;6.40;;;;;;;12.05;73.94;101915.84;10416474;28;20057;-75
2022/06/04 04:48:44;;;;;;;10.63;5.97;;;;;;;12.14;74.22;101917.88;10408668;28;20401;-76
2022/06/04 04:53:47;;;;;;;10.00;6.40;;;;;;;12.21;73.95;101919.84;10411653;28;20045;-76
2022/06/04 04:58:48;;;;;;;13.77;6.63;;;;;;;12.21;73.69;101930.19;10411087;28;20819;-77
2022/06/04 05:03:51;;;;;;;9.52;6.85;;;;;;;12.46;73.41;101931.03;10410245;28;20099;-75
2022/06/04 05:08:53;;;;;;;11.50;6.05;;;;;;;12.37;73.15;101937.66;10410883;28;20535;-75
2022/06/04 05:13:56;;;;;;;11.18;6.78;;;;;;;12.56;72.53;101940.84;10409468;28;20103;-76
2022/06/04 05:18:58;;;;;;;10.98;6.43;;;;;;;12.52;72.86;101949.34;10410958;28;20041;-76
2022/06/04 05:24:00;;;;;;;12.73;6.70;;;;;;;12.63;72.30;101948.00;10390250;28;20045;-75
2022/06/04 05:29:02;;;;;;;10.00;6.43;;;;;;;12.97;72.18;101954.31;10395734;28;20053;-76
2022/06/04 05:34:03;;;;;;;11.40;6.50;;;;;;;13.26;70.37;101956.97;10441685;28;20049;-76
2022/06/04 05:39:07;;;;;;;11.57;6.70;;;;;;;13.59;69.89;101965.75;10412229;28;20039;-76
2022/06/04 05:44:09;;;;;;;8.43;6.28;;;;;;;13.41;69.57;101969.53;10409846;28;20049;-74
2022/06/04 05:49:14;;;;;;;10.82;6.47;;;;;;;13.43;69.81;101974.78;10409361;28;20096;-76
2022/06/04 05:54:16;;;;;;;12.23;6.40;;;;;;;13.45;69.63;101975.66;10410435;28;20064;-76
2022/06/04 05:59:21;;;;;;;12.18;6.35;;;;;;;13.35;69.04;101976.19;10408199;28;20042;-76
2022/06/04 06:04:25;;;;;;;10.50;6.43;;;;;;;13.57;69.47;101973.47;10412551;28;20366;-76
2022/06/04 06:09:28;;;;;;;12.38;6.53;;;;;;;13.54;69.48;101978.56;10407053;28;20126;-76
2022/06/04 06:14:29;;;;;;;12.07;6.20;;;;;;;14.09;68.62;101984.50;10409344;28;20060;-75
2022/06/04 06:19:31;;;;;;;9.02;6.43;;;;;;;13.87;68.08;101988.19;10406699;28;20049;-76
2022/06/04 06:24:33;;;;;;;9.30;6.10;;;;;;;14.35;68.63;101991.25;10411178;28;20060;-75
2022/06/04 06:29:35;;;;;;;13.90;6.38;;;;;;;14.26;67.03;101992.75;10408341;28;20537;-75
2022/06/04 06:34:36;;;;;;;14.20;6.88;;;;;;;14.37;67.71;102007.72;10401608;28;20488;-75
2022/06/04 06:39:38;;;;;;;9.95;6.35;;;;;;;14.30;67.23;102023.94;10404423;28;20041;-75
2022/06/04 06:44:40;;;;;;;9.13;6.30;;;;;;;14.41;67.15;102018.22;10400147;28;20235;-76
2022/06/04 06:49:41;;;;;;;12.25;6.15;;;;;;;14.38;66.36;102012.09;10401035;28;20099;-75
2022/06/04 06:54:46;;;;;;;9.35;6.13;;;;;;;14.66;66.08;102002.50;10410402;28;20523;-76
2022/06/04 06:59:48;;;;;;;8.77;5.90;;;;;;;14.57;65.43;102011.75;10404204;28;20100;-75
2022/06/04 07:04:50;;;;;;;10.02;5.65;;;;;;;14.89;64.77;102006.56;10393399;28;20077;-76
2022/06/04 07:09:52;;;;;;;11.15;6.95;;;;;;;14.88;64.66;102002.22;10401720;28;20123;-75
2022/06/04 07:14:53;;;;;;;12.30;5.95;;;;;;;15.14;64.06;102002.00;10415453;28;20488;-75
2022/06/04 07:19:55;;;;;;;10.25;5.80;;;;;;;15.34;64.11;102001.59;10407358;28;20100;-75
2022/06/04 07:24:57;;;;;;;9.93;6.03;;;;;;;15.27;63.93;102018.72;10407001;28;20115;-76
2022/06/04 07:29:59;;;;;;;8.77;5.45;;;;;;;15.44;63.33;102016.56;10404529;28;20489;-75
2022/06/04 07:35:00;;;;;;;11.55;6.18;;;;;;;15.18;63.54;102019.41;10412157;28;20409;-76
2022/06/04 07:40:05;;;;;;;10.98;5.78;;;;;;;15.81;63.88;102024.31;10405955;28;20103;-76
2022/06/04 07:45:07;;;;;;;9.52;5.90;;;;;;;15.58;62.25;102021.19;10413093;28;20428;-77
2022/06/04 07:50:09;;;;;;;9.77;5.90;;;;;;;15.95;62.25;102014.25;10412352;28;20045;-75
2022/06/04 07:55:12;;;;;;;12.55;6.47;;;;;;;16.33;62.28;102016.78;10412321;28;20077;-77
2022/06/04 08:00:15;;;;;;;11.18;6.30;;;;;;;16.49;61.46;102013.59;10424424;28;20049;-77
2022/06/04 08:05:18;;;;;;;8.20;5.60;;;;;;;16.75;61.89;102015.81;10405350;28;20045;-76
2022/06/04 08:10:21;;;;;;;16.35;6.50;;;;;;;16.91;60.61;102026.50;10404045;28;20033;-76
2022/06/04 08:15:22;;;;;;;10.88;6.53;;;;;;;16.98;60.76;102010.19;10409620;28;20150;-76
2022/06/04 08:20:24;;;;;;;11.48;7.15;;;;;;;16.80;59.43;102013.31;10409969;28;20049;-76
2022/06/04 08:25:26;;;;;;;10.63;6.30;;;;;;;16.89;60.21;102008.28;10402236;28;20044;-76
2022/06/04 08:30:28;;;;;;;9.43;5.80;;;;;;;16.87;59.17;102009.97;10384614;28;20077;-76
2022/06/04 08:35:29;;;;;;;10.90;6.15;;;;;;;17.44;58.91;102012.63;10403577;28;20041;-76
2022/06/04 08:40:45;;;;;;;19.05;6.70;;;;;;;17.33;58.76;102035.06;10410011;28;20049;-75
2022/06/04 08:45:47;;;;;;;7.82;5.30;;;;;;;17.32;58.05;102044.56;10403702;28;20049;-76
2022/06/04 08:50:54;;;;;;;10.88;5.93;;;;;;;17.88;58.03;102035.84;10412130;28;20507;-75
2022/06/04 09:01:35;;;;;;;9.25;5.18;;;;;;;17.96;56.14;102028.19;10410113;28;20389;-76
2022/06/04 09:06:59;;;;;;;8.45;5.68;;;;;;;18.30;56.27;102028.59;10403510;28;20046;-76
2022/06/04 09:12:28;;;;;;;12.60;7.28;;;;;;;18.22;55.61;102035.44;10420630;28;20128;-77
2022/06/04 09:17:50;;;;;;;10.73;5.57;;;;;;;18.28;57.20;102038.13;10401787;28;20042;-76
2022/06/04 09:22:59;;;;;;;9.98;5.38;;;;;;;18.39;56.06;102033.06;10450711;28;20077;-76
2022/06/04 09:28:47;;;;;;;9.17;5.03;;;;;;;18.34;55.22;102019.06;10439098;28;20038;-76
2022/06/04 09:34:00;;;;;;;8.82;5.75;;;;;;;18.32;55.01;102013.84;10403878;28;20295;-80
2022/06/04 09:39:20;;;;;;;9.27;5.00;;;;;;;18.68;55.55;102019.44;10410059;28;20064;-79
2022/06/04 09:44:49;;;;;;;7.57;5.25;;;;;;;18.93;54.04;102015.34;10413639;28;20138;-80
2022/06/04 09:49:58;;;;;;;7.75;5.70;;;;;;;19.10;53.71;102004.19;10426978;28;20049;-79
2022/06/04 09:55:08;;;;;;;12.10;5.77;;;;;;;19.14;53.17;102003.34;10411387;28;20053;-79
2022/06/04 10:00:21;;;;;;;9.20;5.25;;;;;;;20.40;53.25;101997.88;10410030;28;20038;-79
2022/06/04 10:05:28;;;;;;;8.95;5.57;;;;;;;20.36;51.98;102011.00;10426349;28;20053;-79
2022/06/04 10:10:41;;;;;;;8.27;5.15;;;;;;;21.36;52.42;102007.56;10413035;28;20041;-80
2022/06/04 10:15:46;;;;;;;11.98;5.35;;;;;;;20.71;49.22;102008.41;10410378;28;20045;-81
2022/06/04 10:20:52;;;;;;;10.30;5.45;;;;;;;20.76;49.73;102016.31;10415427;28;20048;-80
2022/06/04 10:26:14;;;;;;;10.35;5.10;;;;;;;21.06;49.32;102014.59;10421089;28;20053;-80
2022/06/04 10:31:18;;;;;;;7.90;5.68;;;;;;;21.74;49.47;102008.41;10411496;28;20045;-79
2022/06/04 10:36:53;;;;;;;11.88;5.70;;;;;;;20.99;47.76;102015.47;10397195;28;20045;-78
2022/06/04 10:42:10;;;;;;;9.48;5.75;;;;;;;21.16;49.34;102020.69;10404469;28;20086;-79
2022/06/04 10:47:30;;;;;;;11.15;5.18;;;;;;;21.32;48.50;102011.09;10411512;28;20104;-79
2022/06/04 10:52:44;;;;;;;10.82;6.47;;;;;;;22.40;50.09;102010.75;10397718;28;20052;-78
2022/06/04 10:58:03;;;;;;;7.72;4.70;;;;;;;22.80;47.24;102015.75;10397830;28;20041;-78
2022/06/04 11:03:20;;;;;;;7.05;4.70;;;;;;;21.90;46.99;102014.47;10406124;28;20060;-79
2022/06/04 11:08:28;;;;;;;7.82;5.18;;;;;;;22.14;47.56;102019.63;10426414;28;20049;-79
2022/06/04 11:13:34;;;;;;;7.28;5.07;;;;;;;22.60;47.24;102017.66;10430375;28;20056;-80
2022/06/04 11:18:49;;;;;;;7.20;4.75;;;;;;;22.45;46.78;102024.72;10416918;28;20041;-79
2022/06/04 11:24:00;;;;;;;11.32;4.68;;;;;;;22.86;46.49;102017.44;10416759;28;20096;-80
2022/06/04 11:29:04;;;;;;;9.52;5.10;;;;;;;22.57;46.42;102013.28;10413234;28;20037;-80
2022/06/04 11:34:27;;;;;;;9.82;4.70;;;;;;;22.52;47.21;102016.81;10417572;28;20042;-80
2022/06/04 11:39:40;;;;;;;13.27;4.45;;;;;;;23.22;47.90;102002.28;10416580;28;20041;-80
2022/06/04 11:44:49;;;;;;;9.85;4.25;;;;;;;23.17;44.91;102003.19;10417117;28;20064;-79
2022/06/04 11:50:02;;;;;;;9.60;4.82;;;;;;;23.03;47.00;102012.06;10431058;28;20069;-79
2022/06/04 11:55:28;;;;;;;5.72;4.47;;;;;;;23.05;45.66;102010.28;10417776;28;20539;-79
2022/06/04 12:00:32;;;;;;;11.70;5.40;;;;;;;22.94;45.63;102002.47;10433335;28;20048;-79
2022/06/04 12:05:54;;;;;;;6.20;4.32;;;;;;;22.76;45.42;102008.75;10419452;28;20132;-80
2022/06/04 12:11:03;;;;;;;8.45;4.03;;;;;;;22.91;45.05;102006.88;10416720;28;20477;-80
2022/06/04 12:16:26;;;;;;;7.22;4.68;;;;;;;22.78;45.69;102009.63;10415658;28;20054;-81
2022/06/04 12:27:19;;;;;;;7.25;4.60;;;;;;;23.39;45.12;101994.22;10415796;28;20564;-78
2022/06/04 12:32:34;;;;;;;8.18;4.45;;;;;;;23.44;46.76;101999.44;10415131;28;20091;-79
2022/06/04 12:37:39;;;;;;;7.95;4.68;;;;;;;22.44;45.20;101996.75;10410547;28;20046;-81
2022/06/04 12:42:56;;;;;;;8.75;4.43;;;;;;;23.29;46.72;101990.81;10412420;28;20049;-80
2022/06/04 12:47:58;;;;;;;10.90;4.93;;;;;;;23.19;45.20;101985.69;10411278;28;20580;-80
2022/06/04 12:53:08;;;;;;;9.18;4.70;;;;;;;22.92;46.00;101995.50;10414712;28;20053;-79
2022/06/04 12:58:31;;;;;;;7.72;4.78;;;;;;;23.48;44.46;101995.03;10420440;28;20038;-79
2022/06/04 13:03:38;;;;;;;9.80;4.13;;;;;;;23.66;45.98;101996.56;10413925;28;20046;-79
2022/06/04 13:08:59;;;;;;;6.78;3.60;;;;;;;23.95;46.77;101988.34;10418150;28;20129;-80
2022/06/04 13:14:26;;;;;;;9.98;4.85;;;;;;;23.60;44.91;101984.34;10412067;28;20512;-79
2022/06/04 13:19:47;;;;;;;6.22;4.28;;;;;;;23.92;45.14;101977.84;10410864;28;20076;-79
2022/06/04 13:24:49;;;;;;;8.57;4.13;;;;;;;23.84;42.88;101974.44;10412054;28;20053;-80
2022/06/04 13:29:57;;;;;;;10.45;4.75;;;;;;;23.71;43.98;101966.69;10416473;28;20071;-80
2022/06/04 13:35:04;;;;;;;7.72;4.20;;;;;;;24.16;44.24;101965.28;10414495;28;20049;-80
2022/06/04 13:40:27;;;;;;;7.20;4.43;;;;;;;24.16;43.75;101967.91;10417745;28;20120;-79
2022/06/04 13:45:40;;;;;;;7.95;4.40;;;;;;;23.66;43.56;101970.25;10414763;28;20428;-81
2022/06/04 13:50:48;;;;;;;7.13;4.18;;;;;;;23.63;43.75;101960.66;10408252;28;20041;-80
2022/06/04 13:55:57;;;;;;;6.95;4.15;;;;;;;23.59;42.16;101954.56;10399954;28;20049;-80
2022/06/04 14:01:08;;;;;;;7.93;4.50;;;;;;;23.86;44.39;101956.88;10418444;28;20041;-78
2022/06/04 14:06:10;;;;;;;7.07;4.40;;;;;;;23.84;43.25;101956.88;10420505;28;20033;-79
2022/06/04 14:11:16;;;;;;;5.35;3.75;;;;;;;23.90;44.18;101953.28;10418686;28;20038;-80
2022/06/04 14:16:45;;;;;;;8.57;4.75;;;;;;;23.40;42.71;101943.38;10410568;28;20041;-80
2022/06/04 14:22:05;;;;;;;8.13;3.90;;;;;;;24.14;43.12;101930.19;10417824;28;20041;-80
2022/06/04 14:27:25;;;;;;;10.50;5.18;;;;;;;23.91;42.73;101936.63;10411189;28;20485;-80
2022/06/04 14:32:36;;;;;;;6.78;3.85;;;;;;;24.19;44.61;101923.09;10416378;28;20072;-80
2022/06/04 14:37:43;;;;;;;6.78;4.10;;;;;;;24.04;43.69;101926.81;10400526;28;20061;-80
2022/06/04 14:42:59;;;;;;;7.47;4.18;;;;;;;23.90;42.81;101926.97;10406213;28;20136;-81
2022/06/04 14:48:43;;;;;;;6.80;4.00;;;;;;;23.93;43.16;101924.34;10422898;28;20042;-79
2022/06/04 14:53:46;;;;;;;9.52;3.67;;;;;;;23.92;43.15;101925.19;10333188;28;20071;-81
2022/06/04 14:58:51;;;;;;;5.72;3.90;;;;;;;23.74;42.42;101921.06;10421106;28;20054;-80
2022/06/04 15:04:07;;;;;;;7.07;3.90;;;;;;;24.14;42.99;101903.88;10424394;28;20042;-80
2022/06/04 15:09:39;;;;;;;6.47;3.72;;;;;;;24.02;44.23;101916.31;10424753;28;20037;-80
2022/06/04 15:15:20;;;;;;;7.65;4.20;;;;;;;24.16;42.66;101895.03;10435276;28;20061;-79
2022/06/04 15:20:51;;;;;;;6.50;3.63;;;;;;;24.27;43.38;101900.16;10415901;28;20443;-78
2022/06/04 15:26:07;;;;;;;6.85;3.67;;;;;;;24.11;42.69;101898.63;10383250;28;20065;-77
2022/06/04 15:36:47;;;;;;;7.70;3.63;;;;;;;23.97;43.32;101881.28;10419719;28;20037;-78
2022/06/04 15:41:59;;;;;;;4.75;3.50;;;;;;;23.74;42.42;101877.19;10422824;28;20046;-81
2022/06/04 15:47:12;;;;;;;5.75;3.88;;;;;;;23.86;41.73;101878.78;10413825;28;20488;-79
2022/06/04 15:58:17;;;;;;;7.63;3.72;;;;;;;23.99;43.98;101863.72;10417899;28;20603;-78
2022/06/04 16:03:33;;;;;;;6.50;3.35;;;;;;;24.12;43.95;101860.88;10431163;28;20076;-77
2022/06/04 16:08:40;;;;;;;5.47;3.53;;;;;;;23.89;42.71;101852.44;10419500;28;20092;-79
2022/06/04 16:14:03;;;;;;;7.40;3.35;;;;;;;23.77;42.25;101864.00;10414868;28;20048;-79
2022/06/04 16:19:27;;;;;;;7.95;3.95;;;;;;;23.98;42.69;101856.72;10438732;28;20501;-77
2022/06/04 16:24:31;;;;;;;5.72;3.65;;;;;;;24.08;42.40;101858.31;10423722;28;20049;-78
2022/06/04 16:29:36;;;;;;;7.75;3.45;;;;;;;23.96;42.65;101858.50;10422090;28;20061;-80
2022/06/04 16:34:46;;;;;;;5.90;3.78;;;;;;;24.06;42.06;101852.22;10419580;28;20789;-77
2022/06/04 16:39:48;;;;;;;6.10;3.40;;;;;;;23.88;41.61;101860.31;10416214;28;20091;-78
2022/06/04 16:45:25;;;;;;;4.53;3.20;;;;;;;23.88;41.79;101857.69;10414610;28;20136;-79
2022/06/04 16:50:47;;;;;;;8.23;3.60;;;;;;;23.95;41.83;101853.25;10421190;28;20050;-77
2022/06/04 16:55:49;;;;;;;6.10;3.47;;;;;;;23.90;41.93;101869.09;10427512;28;20052;-77
2022/06/04 17:01:08;;;;;;;5.32;3.67;;;;;;;24.00;42.31;101860.19;10415872;28;20108;-79
2022/06/04 17:06:21;;;;;;;5.55;3.30;;;;;;;23.85;42.00;101860.41;10428270;28;20052;-78
2022/06/04 17:11:35;;;;;;;4.10;2.90;;;;;;;24.11;43.62;101856.50;10431069;28;20045;-78
2022/06/04 17:17:06;;;;;;;5.65;3.20;;;;;;;23.84;42.47;101848.13;10426638;28;20061;-79
2022/06/04 17:22:30;;;;;;;5.70;3.60;;;;;;;23.98;43.14;101851.44;10394916;28;20113;-78
2022/06/04 17:27:38;;;;;;;5.70;3.38;;;;;;;23.83;43.35;101862.16;10424008;28;20049;-78
2022/06/04 17:33:02;;;;;;;6.32;3.60;;;;;;;23.97;44.34;101854.97;10432145;28;20045;-77
2022/06/04 17:38:28;;;;;;;5.65;3.50;;;;;;;23.77;43.66;101864.00;10423326;28;20115;-78
2022/06/04 17:43:29;;;;;;;6.45;3.75;;;;;;;23.63;42.75;101871.22;10414244;28;20081;-79
2022/06/04 17:48:31;;;;;;;5.57;3.47;;;;;;;23.47;43.57;101869.66;10422440;28;20125;-79
2022/06/04 17:53:33;;;;;;;10.00;3.35;;;;;;;23.49;43.15;101873.16;10416706;28;20034;-77
2022/06/04 17:58:35;;;;;;;4.57;3.38;;;;;;;23.40;43.77;101861.88;10415074;28;20061;-79
2022/06/04 18:03:37;;;;;;;6.68;3.42;;;;;;;23.23;42.88;101862.03;10418526;28;20500;-77
2022/06/04 18:08:40;;;;;;;4.90;3.60;;;;;;;23.14;43.62;101863.00;10406538;28;20064;-78
2022/06/04 18:13:42;;;;;;;5.57;3.97;;;;;;;23.02;43.94;101863.16;10423877;28;20045;-79
2022/06/04 18:18:44;;;;;;;7.13;4.15;;;;;;;23.00;43.62;101867.53;10422098;28;20045;-78
2022/06/04 18:23:46;;;;;;;6.90;3.85;;;;;;;22.81;43.96;101857.25;10426445;28;20059;-78
2022/06/04 18:28:47;;;;;;;6.22;3.80;;;;;;;22.88;44.24;101872.94;10417083;28;20386;-77
2022/06/04 18:33:50;;;;;;;8.18;3.63;;;;;;;;;;10430159;28;20080;-78
2022/06/04 18:38:52;;;;;;;7.22;3.88;;;;;;;22.67;45.83;101867.00;10428910;28;20042;-79
2022/06/04 18:54:44;;;;;;;6.05;3.90;;;;;;;22.22;46.12;101863.84;10404299;28;20061;-75
2022/06/04 18:59:47;;;;;;;4.50;3.45;;;;;;;22.29;45.97;101862.94;10407778;28;20049;-75
2022/06/04 19:04:49;;;;;;;6.22;3.72;;;;;;;22.26;46.08;101866.44;10396944;28;20091;-76
2022/06/04 19:10:11;;;;;;;6.57;3.88;;;;;;;21.96;47.33;101860.53;10405569;28;20481;-75
2022/06/04 19:15:14;;;;;;;6.85;4.00;;;;;;;21.76;46.96;101865.00;10399753;28;20037;-76
2022/06/04 19:25:35;;;;;;;5.20;3.90;;;;;;;21.42;47.77;101860.75;10411498;28;20501;-76
2022/06/04 19:30:42;;;;;;;5.93;4.20;;;;;;;21.28;48.59;101868.69;10408766;28;20041;-76
2022/06/04 19:35:43;;;;;;;6.72;4.30;;;;;;;20.94;49.87;101867.91;10403590;28;20053;-75
2022/06/04 19:40:46;;;;;;;6.20;3.92;;;;;;;20.76;50.21;101865.31;10413442;28;20099;-76
2022/06/04 19:45:48;;;;;;;7.38;4.53;;;;;;;20.70;50.25;101875.75;10412020;28;20047;-76
2022/06/04 19:50:49;;;;;;;6.45;3.92;;;;;;;20.58;51.11;101875.75;10404309;28;20046;-75
2022/06/04 19:55:51;;;;;;;7.65;4.28;;;;;;;20.35;51.44;101873.16;10390681;28;20060;-76
2022/06/04 20:00:53;;;;;;;8.57;4.15;;;;;;;20.27;51.66;101871.41;10405979;28;20448;-75
2022/06/04 20:05:55;;;;;;;7.20;4.43;;;;;;;20.24;51.26;101881.84;10405488;28;20105;-75
2022/06/04 20:10:57;;;;;;;7.60;4.68;;;;;;;20.08;51.83;101883.59;10406165;28;20136;-75
2022/06/04 20:16:01;;;;;;;8.27;4.70;;;;;;;20.14;52.19;101895.81;10408374;28;20052;-75
2022/06/04 20:21:09;;;;;;;6.22;4.65;;;;;;;19.94;52.25;101914.94;10409619;28;20048;-75
2022/06/04 20:26:13;;;;;;;6.38;4.43;;;;;;;19.81;53.04;101916.59;10411839;28;20465;-75
2022/06/04 20:31:17;;;;;;;6.07;4.70;;;;;;;19.66;53.07;101920.03;10409142;28;20045;-75
2022/06/04 20:36:22;;;;;;;8.43;4.70;;;;;;;19.49;53.54;101916.47;10410923;28;20128;-75
2022/06/04 20:41:25;;;;;;;7.07;4.40;;;;;;;19.39;53.41;101918.16;10412152;28;20547;-75
2022/06/04 20:46:28;;;;;;;8.63;3.83;;;;;;;19.23;54.14;101914.59;10410753;28;20049;-75
2022/06/04 20:51:30;;;;;;;6.85;4.40;;;;;;;19.21;53.96;101916.31;10411705;28;20042;-75
2022/06/04 20:56:32;;;;;;;7.57;4.18;;;;;;;18.93;55.18;101923.06;10412346;28;20451;-75
2022/06/04 21:01:36;;;;;;;7.50;4.22;;;;;;;18.71;55.86;101915.94;10409526;28;20416;-76
2022/06/04 21:06:41;;;;;;;6.50;4.05;;;;;;;18.62;55.81;101910.63;10407108;28;22192;-76
2022/06/04 21:11:42;;;;;;;7.38;3.53;;;;;;;18.39;56.90;101908.69;10404747;28;20539;-75
2022/06/04 21:16:44;;;;;;;6.03;4.05;;;;;;;18.31;57.36;101905.13;10405805;28;20049;-75
2022/06/04 21:21:46;;;;;;;7.60;4.40;;;;;;;18.22;57.59;101895.50;10409534;28;20029;-75
2022/06/04 21:26:48;;;;;;;8.85;4.47;;;;;;;17.98;58.53;101885.69;10410186;28;20057;-75
2022/06/04 21:31:49;;;;;;;8.43;4.55;;;;;;;17.87;58.71;101872.47;10414301;28;20049;-75
2022/06/04 21:42:11;;;;;;;10.38;4.63;;;;;;;17.73;59.75;101869.72;10399156;28;20045;-75
2022/06/04 21:47:13;;;;;;;7.88;4.78;;;;;;;17.61;60.19;101877.38;10406599;28;20137;-75
2022/06/04 21:52:15;;;;;;;10.57;4.80;;;;;;;17.46;60.95;101874.63;10432047;28;20049;-75
2022/06/04 21:57:18;;;;;;;8.60;5.50;;;;;;;17.36;61.33;101873.59;10429614;28;20124;-75
2022/06/04 22:02:20;;;;;;;9.20;5.38;;;;;;;17.15;62.43;101882.00;10406145;28;20569;-75
2022/06/04 22:07:47;;;;;;;134.55;29.70;;;;;;;17.24;62.53;101896.03;10407968;28;20417;-74
2022/06/04 22:12:51;;;;;;;10.70;5.60;;;;;;;17.02;63.42;101896.56;10402000;28;20068;-76
2022/06/04 22:17:53;;;;;;;52.47;37.92;;;;;;;17.07;63.50;101898.38;10403673;28;20132;-75
2022/06/04 22:22:54;;;;;;;7.68;5.40;;;;;;;17.08;63.78;101888.84;10407664;28;20428;-76
2022/06/04 22:27:56;;;;;;;15.82;10.38;;;;;;;17.20;63.67;101880.31;10407126;28;20053;-76
2022/06/04 22:32:58;;;;;;;9.48;4.78;;;;;;;16.95;64.22;101887.78;10403472;28;20558;-76
2022/06/04 22:38:00;;;;;;;136.88;45.65;;;;;;;17.03;64.09;101886.16;10408665;28;20049;-75
2022/06/04 22:43:05;;;;;;;14.75;6.40;;;;;;;17.01;64.53;101885.28;10407104;28;20041;-75
2022/06/04 22:48:08;;;;;;;10.13;6.10;;;;;;;16.91;64.61;101892.03;10390340;28;20487;-75
2022/06/04 22:53:10;;;;;;;14.45;6.30;;;;;;;16.81;64.93;101890.16;10421600;28;20053;-75
2022/06/04 22:58:12;;;;;;;11.95;6.10;;;;;;;16.87;64.98;101889.34;10406016;28;20057;-75
2022/06/04 23:03:14;;;;;;;11.25;6.50;;;;;;;16.71;65.34;101880.44;10414129;28;20451;-75
2022/06/04 23:08:16;;;;;;;9.45;5.80;;;;;;;16.59;65.63;101883.69;10414700;28;20053;-75
2022/06/04 23:23:58;;;;;;;12.35;6.68;;;;;;;16.45;66.05;101866.16;10414308;28;20073;-75
2022/06/04 23:29:02;;;;;;;10.30;5.95;;;;;;;16.38;66.37;101856.50;10414611;28;20091;-76
2022/06/04 23:34:04;;;;;;;10.98;5.72;;;;;;;16.31;66.62;101845.09;10415050;28;20064;-75
2022/06/04 23:39:06;;;;;;;11.63;6.40;;;;;;;16.33;66.42;101839.94;10414940;28;20064;-75
2022/06/04 23:44:08;;;;;;;10.27;6.30;;;;;;;16.32;66.35;101844.25;10409651;28;20107;-76
2022/06/04 23:49:13;;;;;;;11.00;6.50;;;;;;;16.20;66.45;101827.56;10425492;28;20437;-78
2022/06/04 23:54:15;;;;;;;12.75;6.80;;;;;;;16.03;67.16;101830.75;10433742;28;20495;-78
2022/06/04 23:59:17;;;;;;;13.40;5.78;;;;;;;15.98;66.92;101835.88;10434795;28;20098;-77
